createdAt,value
2023-03-29T00:03:12.103Z,5
2023-03-29T00:05:13.709Z,5
2023-03-29T00:07:18.139Z,5
2023-03-29T00:09:19.846Z,5
2023-03-29T00:11:21.584Z,5
2023-03-29T00:13:25.990Z,5
2023-03-29T00:17:29.470Z,5
2023-03-29T00:19:33.853Z,4.9
2023-03-29T00:21:35.547Z,5
2023-03-29T00:23:37.282Z,5
2023-03-29T00:25:41.680Z,5
2023-03-29T00:27:43.403Z,5
2023-03-29T00:29:45.148Z,5
2023-03-29T00:33:51.311Z,5
2023-03-29T00:42:00.832Z,5.1
2023-03-29T00:51:00.628Z,5.1
2023-03-29T00:53:02.074Z,5.1
2023-03-29T01:02:16.603Z,5.1
2023-03-29T01:04:18.260Z,5.1
2023-03-29T01:06:22.659Z,5.1
2023-03-29T01:08:24.367Z,5.1
2023-03-29T01:10:26.101Z,5.1
2023-03-29T01:12:30.496Z,5.1
2023-03-29T01:14:32.218Z,5.1
2023-03-29T01:16:33.982Z,5.2
2023-03-29T01:20:40.105Z,5.2
2023-03-29T01:22:41.806Z,5.2
2023-03-29T01:24:52.325Z,5.2
2023-03-29T01:28:55.760Z,5.2
2023-03-29T01:33:01.949Z,5.3
2023-03-29T01:35:03.629Z,5.2
2023-03-29T01:37:08.056Z,5.2
2023-03-29T01:41:11.486Z,5.3
2023-03-29T01:43:15.892Z,5.3
2023-03-29T01:55:31.648Z,5.4
2023-03-29T01:57:33.398Z,5.4
2023-03-29T02:01:39.537Z,5.6
2023-03-29T02:05:42.955Z,5.6
2023-03-29T02:11:50.842Z,5.6
2023-03-29T02:23:31.227Z,5.6
2023-03-29T02:25:32.951Z,5.7
2023-03-29T02:27:34.728Z,5.7
2023-03-29T02:29:39.116Z,5.7
2023-03-29T02:33:42.589Z,5.7
2023-03-29T02:35:47.035Z,5.8
2023-03-29T02:37:48.756Z,5.8
2023-03-29T02:39:50.495Z,5.8
2023-03-29T02:41:54.919Z,5.8
2023-03-29T02:45:58.401Z,5.8
2023-03-29T02:48:03.628Z,5.9
2023-03-29T02:52:06.328Z,5.8
2023-03-29T02:54:10.756Z,5.9
2023-03-29T02:56:12.521Z,5.8
2023-03-29T02:58:14.244Z,5.9
2023-03-29T03:00:18.685Z,5.9
2023-03-29T03:02:20.572Z,5.9
2023-03-29T03:04:22.204Z,5.8
2023-03-29T03:08:28.365Z,5.8
2023-03-29T03:10:30.128Z,5.8
2023-03-29T03:12:34.551Z,5.8
2023-03-29T03:14:36.287Z,5.8
2023-03-29T03:16:38.171Z,5.8
2023-03-29T03:20:44.221Z,5.7
2023-03-29T03:22:45.941Z,5.7
2023-03-29T03:24:50.390Z,5.6
2023-03-29T03:28:53.821Z,5.6
2023-03-29T03:30:58.244Z,5.6
2023-03-29T03:33:00.029Z,5.6
2023-03-29T03:35:01.727Z,5.5
2023-03-29T03:37:06.164Z,5.5
2023-03-29T03:39:07.916Z,5.6
2023-03-29T03:41:09.658Z,5.5
2023-03-29T03:43:14.086Z,5.6
2023-03-29T03:45:15.823Z,5.5
2023-03-29T03:49:21.970Z,5.5
2023-03-29T03:51:23.730Z,5.5
2023-03-29T03:53:25.492Z,5.6
2023-03-29T03:55:29.876Z,5.6
2023-03-29T03:59:33.379Z,5.6
2023-03-29T04:05:41.257Z,5.5
2023-03-29T04:11:49.187Z,5.5
2023-03-29T04:20:48.795Z,5.6
2023-03-29T04:22:50.523Z,5.6
2023-03-29T04:24:52.272Z,5.6
2023-03-29T04:33:04.606Z,5.6
2023-03-29T04:37:08.116Z,5.6
2023-03-29T04:42:14.089Z,5.6
2023-03-29T04:54:29.863Z,5.7
2023-03-29T05:00:37.724Z,5.7
2023-03-29T05:02:39.487Z,5.7
2023-03-29T05:04:41.311Z,5.8
2023-03-29T05:06:45.623Z,5.8
2023-03-29T05:08:47.349Z,5.8
2023-03-29T05:10:49.110Z,5.8
2023-03-29T05:20:00.836Z,5.9
2023-03-29T05:22:05.287Z,6
2023-03-29T05:24:07.058Z,6
2023-03-29T05:28:13.195Z,6
2023-03-29T05:32:16.713Z,6
2023-03-29T05:34:21.124Z,6.1
2023-03-29T05:38:24.622Z,6.1
2023-03-29T05:40:29.061Z,6.1
2023-03-29T05:42:30.801Z,6.1
2023-03-29T05:44:32.543Z,6.2
2023-03-29T05:49:35.784Z,6.2
2023-03-29T05:51:37.530Z,6.3
2023-03-29T05:53:39.284Z,6.3
2023-03-29T05:55:43.701Z,6.3
2023-03-29T05:57:45.490Z,6.4
2023-03-29T05:59:47.245Z,6.4
2023-03-29T06:01:51.654Z,6.4
2023-03-29T06:05:55.168Z,6.5
2023-03-29T06:07:59.588Z,6.5
2023-03-29T06:19:17.132Z,6.6
2023-03-29T06:21:18.832Z,6.7
2023-03-29T06:23:23.317Z,6.7
2023-03-29T06:25:25.062Z,6.7
2023-03-29T06:27:26.802Z,6.7
2023-03-29T06:29:31.248Z,6.7
2023-03-29T06:31:33.048Z,6.8
2023-03-29T06:33:34.753Z,6.8
2023-03-29T06:35:39.212Z,6.9
2023-03-29T06:39:42.702Z,7
2023-03-29T06:41:47.134Z,7
2023-03-29T06:43:48.888Z,7
2023-03-29T06:45:50.694Z,7
2023-03-29T06:47:55.159Z,7.1
2023-03-29T06:54:03.093Z,7.2
2023-03-29T06:56:04.834Z,7.3
2023-03-29T07:10:22.610Z,7.8
2023-03-29T07:12:27.014Z,7.8
2023-03-29T07:14:28.775Z,7.9
2023-03-29T07:21:38.026Z,8.3
2023-03-29T07:25:40.288Z,8.6
2023-03-29T07:27:44.650Z,8.5
2023-03-29T07:30:09.963Z,8.7
2023-03-29T07:31:47.992Z,8.9
2023-03-29T07:33:52.413Z,9.1
2023-03-29T07:35:54.083Z,9.1
2023-03-29T07:37:56.025Z,8.9
2023-03-29T07:46:07.979Z,9.1
2023-03-29T07:50:11.294Z,9.6
2023-03-29T07:52:15.702Z,9.6
2023-03-29T07:54:17.397Z,9.8
2023-03-29T08:02:26.951Z,10.1
2023-03-29T08:04:31.425Z,10.7
2023-03-29T08:10:58.535Z,10.5
2023-03-29T08:13:00.270Z,10.3
2023-03-29T08:15:02.028Z,10.5
2023-03-29T08:17:07.342Z,10.5
2023-03-29T08:21:10.648Z,10.2
2023-03-29T08:29:17.603Z,10.2
2023-03-29T08:31:22.854Z,10.3
2023-03-29T08:33:24.571Z,10.4
2023-03-29T08:35:26.300Z,10.7
2023-03-29T08:37:28.044Z,10.9
2023-03-29T08:39:29.769Z,10.9
2023-03-29T08:55:47.216Z,10.8
2023-03-29T08:59:54.221Z,10.6
2023-03-29T09:01:55.999Z,10.7
2023-03-29T09:03:57.803Z,10.6
2023-03-29T09:07:02.099Z,10.7
2023-03-29T09:09:03.879Z,10.6
2023-03-29T09:13:10.870Z,11
2023-03-29T09:17:14.314Z,10.9
2023-03-29T09:27:26.679Z,12
2023-03-29T09:37:35.388Z,11.5
2023-03-29T09:41:42.400Z,11.1
2023-03-29T09:45:45.976Z,11.3
2023-03-29T09:47:47.692Z,11.3
2023-03-29T09:49:49.414Z,11.5
2023-03-29T09:57:59.896Z,11.5
2023-03-29T10:00:01.680Z,11.6
2023-03-29T10:03:07.463Z,11.7
2023-03-29T10:05:07.791Z,11.9
2023-03-29T10:07:09.551Z,12.1
2023-03-29T10:09:14.774Z,13
2023-03-29T10:13:18.365Z,12.7
2023-03-29T10:15:29.361Z,12.9
2023-03-29T10:17:21.845Z,13.7
2023-03-29T10:29:35.943Z,12.5
2023-03-29T10:33:39.435Z,13
2023-03-29T10:35:41.221Z,13
2023-03-29T10:37:46.442Z,12.7
2023-03-29T10:41:50.003Z,13.3
2023-03-29T10:43:51.760Z,13.7
2023-03-29T10:45:53.547Z,13.9
2023-03-29T10:47:55.354Z,14.2
2023-03-29T10:49:57.407Z,14.4
2023-03-29T10:52:02.323Z,14.5
2023-03-29T10:56:05.856Z,14.4
2023-03-29T10:57:08.570Z,14.1
2023-03-29T11:01:12.161Z,13.7
2023-03-29T11:03:16.206Z,13.8
2023-03-29T11:05:19.106Z,13.5
2023-03-29T11:09:22.675Z,13.9
2023-03-29T11:17:29.799Z,13
2023-03-29T11:19:35.000Z,12.8
2023-03-29T11:25:40.347Z,12.7
2023-03-29T11:27:42.099Z,13.3
2023-03-29T11:29:43.883Z,13.3
2023-03-29T11:33:50.896Z,13.5
2023-03-29T11:35:52.862Z,13.8
2023-03-29T11:37:54.451Z,13.4
2023-03-29T11:39:56.212Z,14
2023-03-29T11:41:57.992Z,14.3
2023-03-29T11:43:59.772Z,14
2023-03-29T11:46:01.528Z,14.2
2023-03-29T11:48:07.083Z,13.8
2023-03-29T11:50:08.564Z,13.6
2023-03-29T11:52:10.314Z,13.5
2023-03-29T11:58:38.279Z,13.9
2023-03-29T12:02:42.299Z,13.2
2023-03-29T12:04:43.933Z,13.4
2023-03-29T12:06:45.718Z,13.8
2023-03-29T12:08:47.535Z,14.3
2023-03-29T12:23:03.449Z,13
2023-03-29T12:25:05.258Z,13.1
2023-03-29T12:27:07.001Z,13
2023-03-29T12:31:14.038Z,12.4
2023-03-29T12:35:17.574Z,12.5
2023-03-29T12:37:19.336Z,12.7
2023-03-29T12:50:36.125Z,13.3
2023-03-29T12:52:37.903Z,13.1
2023-03-29T12:54:39.707Z,12.9
2023-03-29T12:58:46.706Z,13.1
2023-03-29T13:00:48.504Z,13.1
2023-03-29T13:02:50.362Z,12.8
2023-03-29T13:04:52.077Z,12.6
2023-03-29T13:13:02.641Z,12.8
2023-03-29T13:15:04.378Z,13.2
2023-03-29T13:17:17.852Z,13.1
2023-03-29T13:23:11.486Z,12.9
2023-03-29T13:25:16.711Z,13
2023-03-29T13:27:18.481Z,13.1
2023-03-29T13:29:20.257Z,12.9
2023-03-29T13:31:22.077Z,12.7
2023-03-29T13:33:23.755Z,12.6
2023-03-29T13:35:25.524Z,12.6
2023-03-29T13:37:27.285Z,12.6
2023-03-29T13:39:32.570Z,12.7
2023-03-29T13:41:34.315Z,12.6
2023-03-29T13:43:36.074Z,12.8
2023-03-29T13:44:38.700Z,12.9
2023-03-29T13:48:42.216Z,13.1
2023-03-29T14:05:01.460Z,12.6
2023-03-29T14:07:06.691Z,12.9
2023-03-29T14:13:11.973Z,13.2
2023-03-29T14:15:13.758Z,13.3
2023-03-29T14:17:15.500Z,13.3
2023-03-29T14:19:17.274Z,13.4
2023-03-29T14:21:22.498Z,13.4
2023-03-29T14:23:24.250Z,13.4
2023-03-29T14:25:26.082Z,13.3
2023-03-29T14:27:27.809Z,13.1
2023-03-29T14:33:33.111Z,12.8
2023-03-29T14:35:38.459Z,12.8
2023-03-29T14:37:40.110Z,12.8
2023-03-29T14:39:41.899Z,12.8
2023-03-29T14:44:48.037Z,13.1
2023-03-29T14:50:56.838Z,13.3
2023-03-29T14:55:00.350Z,13.3
2023-03-29T14:59:03.875Z,13.2
2023-03-29T15:01:05.693Z,13.4
2023-03-29T15:03:10.977Z,13.4
2023-03-29T15:05:12.690Z,13.4
2023-03-29T15:07:14.422Z,13.4
2023-03-29T15:09:16.185Z,13.4
2023-03-29T15:11:17.960Z,13.5
2023-03-29T15:13:19.974Z,13.5
2023-03-29T15:15:21.497Z,13.6
2023-03-29T15:17:31.288Z,13.6
2023-03-29T15:19:28.551Z,13.6
2023-03-29T15:21:30.313Z,13.6
2023-03-29T15:23:32.041Z,13.6
2023-03-29T15:27:35.579Z,13.7
2023-03-29T15:29:37.372Z,13.7
2023-03-29T15:31:42.738Z,13.6
2023-03-29T15:33:44.429Z,13.6
2023-03-29T15:35:46.143Z,13.6
2023-03-29T15:42:07.037Z,13.6
2023-03-29T16:00:29.896Z,13.4
2023-03-29T16:02:31.735Z,13.4
2023-03-29T16:08:36.918Z,13.4
2023-03-29T16:14:45.708Z,13.3
2023-03-29T16:32:06.885Z,13.1
2023-03-29T16:34:07.699Z,13.1
2023-03-29T16:36:09.525Z,13
2023-03-29T16:38:11.291Z,13
2023-03-29T16:40:16.500Z,13.1
2023-03-29T16:42:18.260Z,13
2023-03-29T16:44:22.980Z,13.1
2023-03-29T16:46:21.848Z,13.1
2023-03-29T16:48:23.587Z,13.1
2023-03-29T16:50:25.411Z,13.1
2023-03-29T16:52:27.116Z,13.1
2023-03-29T16:54:32.357Z,13.1
2023-03-29T16:56:34.107Z,13.1
2023-03-29T16:58:35.891Z,13.1
2023-03-29T17:00:37.655Z,13.1
2023-03-29T17:02:39.445Z,13.1
2023-03-29T17:04:41.254Z,13.1
2023-03-29T17:08:48.159Z,13
2023-03-29T17:10:49.950Z,13
2023-03-29T17:12:51.701Z,13
2023-03-29T17:16:55.205Z,13
2023-03-29T17:18:56.991Z,13
2023-03-29T17:23:03.968Z,12.9
2023-03-29T17:27:07.470Z,12.9
2023-03-29T17:28:10.092Z,12.9
2023-03-29T17:32:13.644Z,12.9
2023-03-29T17:38:22.355Z,12.8
2023-03-29T17:52:38.108Z,12.8
2023-03-29T18:02:50.240Z,12.7
2023-03-29T18:04:52.921Z,12.7
2023-03-29T18:06:54.669Z,12.7
2023-03-29T18:12:59.916Z,12.7
2023-03-29T18:19:08.718Z,12.6
2023-03-29T18:21:10.478Z,12.6
2023-03-29T18:28:18.325Z,12.6
2023-03-29T18:30:20.088Z,12.6
2023-03-29T18:32:25.373Z,12.5
2023-03-29T18:34:27.077Z,12.5
2023-03-29T18:38:30.565Z,12.5
2023-03-29T18:40:32.382Z,12.5
2023-03-29T18:42:34.126Z,12.5
2023-03-29T18:44:35.878Z,12.4
2023-03-29T18:48:42.862Z,12.3
2023-03-29T18:50:44.642Z,12.2
2023-03-29T18:52:46.400Z,12.2
2023-03-29T18:54:48.189Z,12.1
2023-03-29T18:56:50.012Z,12.1
2023-03-29T18:58:51.735Z,12
2023-03-29T19:00:56.988Z,12
2023-03-29T19:02:58.740Z,12
2023-03-29T19:05:00.500Z,12
2023-03-29T19:07:02.220Z,11.9
2023-03-29T19:09:03.956Z,11.9
2023-03-29T19:11:05.742Z,11.8
2023-03-29T19:13:07.457Z,11.8
2023-03-29T19:15:12.706Z,11.9
2023-03-29T19:17:14.440Z,11.9
2023-03-29T19:21:33.598Z,11.8
2023-03-29T19:23:35.357Z,11.8
2023-03-29T19:25:37.105Z,11.8
2023-03-29T19:29:46.775Z,11.6
2023-03-29T19:31:45.884Z,11.6
2023-03-29T19:35:49.399Z,11.6
2023-03-29T19:37:51.133Z,11.6
2023-03-29T19:39:52.851Z,11.6
2023-03-29T19:41:58.103Z,11.5
2023-03-29T19:44:01.493Z,11.4
2023-03-29T19:48:04.988Z,11.3
2023-03-29T19:50:06.955Z,11.2
2023-03-29T19:54:10.461Z,11.1
2023-03-29T19:56:15.712Z,11.1
2023-03-29T19:58:17.454Z,11
2023-03-29T20:14:34.947Z,10.9
2023-03-29T20:15:37.554Z,10.9
2023-03-29T20:17:39.562Z,10.9
2023-03-29T20:19:41.039Z,11
2023-03-29T20:21:42.783Z,10.9
2023-03-29T20:31:55.030Z,10.8
2023-03-29T20:35:58.584Z,10.6
2023-03-29T20:40:05.482Z,10.6
2023-03-29T20:42:07.189Z,10.6
2023-03-29T20:44:08.912Z,10.6
2023-03-29T20:46:10.679Z,10.6
2023-03-29T20:48:12.385Z,10.6
2023-03-29T20:50:14.144Z,10.5
2023-03-29T20:52:19.350Z,10.6
2023-03-29T20:54:21.101Z,10.6
2023-03-29T20:58:24.548Z,10.7
2023-03-29T21:02:28.086Z,10.8
2023-03-29T21:04:29.798Z,10.8
2023-03-29T21:06:35.030Z,10.8
2023-03-29T21:10:38.427Z,10.8
2023-03-29T21:11:41.050Z,10.8
2023-03-29T21:15:44.541Z,10.8
2023-03-29T21:17:46.296Z,10.9
2023-03-29T21:19:51.433Z,10.9
2023-03-29T21:21:53.184Z,11
2023-03-29T21:23:54.902Z,11.1
2023-03-29T21:25:56.623Z,11.2
2023-03-29T21:27:58.323Z,11.2
2023-03-29T21:30:00.044Z,11.2
2023-03-29T21:32:01.816Z,11.3
2023-03-29T21:34:06.997Z,11.3
2023-03-29T21:38:10.460Z,11.4
2023-03-29T21:40:12.190Z,11.5
2023-03-29T21:44:15.672Z,11.6
2023-03-29T21:46:17.405Z,11.6
2023-03-29T21:48:22.653Z,11.5
2023-03-29T21:50:24.377Z,11.6
2023-03-29T21:52:26.148Z,11.6
2023-03-29T21:54:27.863Z,11.5
2023-03-29T22:07:44.396Z,11
2023-03-29T22:09:46.145Z,11
2023-03-29T22:11:47.872Z,11
2023-03-29T22:13:49.637Z,11
2023-03-29T22:15:54.870Z,11
2023-03-29T22:17:58.607Z,11
2023-03-29T22:19:58.382Z,11
2023-03-29T22:22:00.115Z,11.2
2023-03-29T22:24:01.791Z,11.1
2023-03-29T22:26:03.544Z,11.1
2023-03-29T22:28:05.287Z,11.1
2023-03-29T22:32:12.280Z,11
2023-03-29T22:34:13.963Z,11.1
2023-03-29T22:38:17.423Z,11
2023-03-29T22:40:19.185Z,11.1
2023-03-29T22:42:20.905Z,11.1
2023-03-29T22:44:26.107Z,11.2
2023-03-29T22:48:29.596Z,11.1
2023-03-29T22:50:31.338Z,11.1
2023-03-29T22:54:34.812Z,11.1
2023-03-29T22:56:36.530Z,10.9
2023-03-29T22:58:41.775Z,10.9
2023-03-29T23:00:43.514Z,10.9
2023-03-29T23:02:45.261Z,10.9
2023-03-29T23:05:02.546Z,10.8
2023-03-29T23:07:04.282Z,10.7
2023-03-29T23:09:06.022Z,10.7
2023-03-29T23:11:11.562Z,10.8
2023-03-29T23:13:12.984Z,10.7
2023-03-29T23:17:16.482Z,11
2023-03-29T23:19:18.212Z,11.6
2023-03-29T23:21:19.921Z,11.6
2023-03-29T23:25:26.896Z,11.6
2023-03-29T23:33:33.847Z,12.4
2023-03-29T23:35:35.603Z,12.9
2023-03-29T23:37:37.340Z,13.1
2023-03-29T23:39:42.532Z,13.1
2023-03-29T23:41:44.283Z,13.1
2023-03-29T23:45:47.739Z,13.4
2023-03-29T23:49:51.175Z,13.6
2023-03-29T23:51:52.916Z,13.4
2023-03-29T23:53:58.129Z,13.5
2023-03-29T23:55:59.855Z,13.6
2023-03-29T23:58:01.628Z,13.6
